createdAt,value
2019-05-23T00:02:21.471Z,6.40
2019-05-23T00:04:55.357Z,8.50
2019-05-23T00:07:25.289Z,7.70
2019-05-23T00:09:52.786Z,16.23
2019-05-23T00:12:39.783Z,15.40
2019-05-23T00:15:14.444Z,17.40
2019-05-23T00:17:42.125Z,18.87
2019-05-23T00:20:09.824Z,19.87
2019-05-23T00:22:37.556Z,19.93
2019-05-23T00:25:05.289Z,18.57
2019-05-23T00:27:33.457Z,18.73
2019-05-23T00:30:03.405Z,21.43
2019-05-23T00:32:35.476Z,17.90
2019-05-23T00:35:03.782Z,22.00
2019-05-23T00:37:32.356Z,19.27
2019-05-23T00:39:59.952Z,29.70
2019-05-23T00:42:29.057Z,23.70
2019-05-23T00:44:56.864Z,23.37
2019-05-23T00:47:25.280Z,20.37
2019-05-23T00:49:52.477Z,22.50
2019-05-23T00:52:20.780Z,20.13
2019-05-23T00:54:48.689Z,20.67
2019-05-23T00:57:16.574Z,19.20
2019-05-23T00:59:44.660Z,22.63
2019-05-23T01:02:11.957Z,21.87
2019-05-23T01:04:40.127Z,16.53
2019-05-23T01:07:09.081Z,14.83
2019-05-23T01:09:37.688Z,15.73
2019-05-23T01:12:05.313Z,14.00
2019-05-23T01:14:33.641Z,14.83
2019-05-23T01:17:01.228Z,14.40
2019-05-23T01:19:28.728Z,14.07
2019-05-23T01:21:58.565Z,11.70
2019-05-23T01:24:37.703Z,14.70
2019-05-23T01:27:06.506Z,11.97
2019-05-23T01:29:38.924Z,13.97
2019-05-23T01:32:13.975Z,15.47
2019-05-23T01:34:43.757Z,13.50
2019-05-23T01:37:11.355Z,13.50
2019-05-23T01:39:38.641Z,14.23
2019-05-23T01:42:06.523Z,13.20
2019-05-23T01:44:35.178Z,19.73
2019-05-23T01:47:03.177Z,12.30
2019-05-23T01:49:31.537Z,13.40
2019-05-23T01:52:00.681Z,15.50
2019-05-23T01:54:28.380Z,12.93
2019-05-23T01:56:56.182Z,13.67
2019-05-23T01:59:23.663Z,14.73
2019-05-23T02:01:52.573Z,13.77
2019-05-23T02:04:19.973Z,15.73
2019-05-23T02:06:47.598Z,16.10
2019-05-23T02:09:15.284Z,17.87
2019-05-23T02:11:42.675Z,16.80
2019-05-23T02:14:10.641Z,15.33
2019-05-23T02:16:38.951Z,23.10
2019-05-23T02:19:06.962Z,15.93
2019-05-23T02:21:34.562Z,15.63
2019-05-23T02:24:02.461Z,15.50
2019-05-23T02:26:30.356Z,15.47
2019-05-23T02:28:58.234Z,13.83
2019-05-23T02:31:25.429Z,14.53
2019-05-23T02:33:52.614Z,15.10
2019-05-23T02:36:19.934Z,15.00
2019-05-23T02:39:05.737Z,17.47
2019-05-23T02:41:45.330Z,14.90
2019-05-23T02:44:16.226Z,16.47
2019-05-23T02:47:02.448Z,18.00
2019-05-23T02:49:32.916Z,16.53
2019-05-23T02:52:14.857Z,22.93
2019-05-23T02:54:42.262Z,23.20
2019-05-23T02:57:10.253Z,14.37
2019-05-23T02:59:51.421Z,19.33
2019-05-23T03:02:44.971Z,19.57
2019-05-23T03:05:16.736Z,20.40
2019-05-23T03:07:44.532Z,19.70
2019-05-23T03:10:13.225Z,18.10
2019-05-23T03:12:42.921Z,19.53
2019-05-23T03:15:12.441Z,24.03
2019-05-23T03:17:44.687Z,25.27
2019-05-23T03:20:12.694Z,21.40
2019-05-23T03:23:07.838Z,23.27
2019-05-23T03:26:14.940Z,23.63
2019-05-23T03:28:42.293Z,27.47
2019-05-23T03:31:28.817Z,22.23
2019-05-23T03:33:45.262Z,22.23
2019-05-23T03:36:12.476Z,25.77
2019-05-23T03:38:40.380Z,27.33
2019-05-23T03:41:08.233Z,27.47
2019-05-23T03:43:36.004Z,27.70
2019-05-23T03:46:06.350Z,29.00
2019-05-23T03:48:34.126Z,31.33
2019-05-23T03:51:02.209Z,31.67
2019-05-23T03:53:31.212Z,28.87
2019-05-23T03:55:58.858Z,32.63
2019-05-23T03:58:29.148Z,27.83
2019-05-23T04:00:58.450Z,31.80
2019-05-23T04:03:26.456Z,31.93
2019-05-23T04:05:54.434Z,27.53
2019-05-23T04:08:22.842Z,29.50
2019-05-23T04:10:51.823Z,34.33
2019-05-23T04:13:19.854Z,31.90
2019-05-23T04:15:47.548Z,30.80
2019-05-23T04:18:14.746Z,29.40
2019-05-23T04:20:42.527Z,35.83
2019-05-23T04:23:10.809Z,33.90
2019-05-23T04:25:38.310Z,32.10
2019-05-23T04:28:05.792Z,32.60
2019-05-23T04:30:33.261Z,34.37
2019-05-23T04:33:01.080Z,29.30
2019-05-23T04:35:28.349Z,29.97
2019-05-23T04:37:56.481Z,30.03
2019-05-23T04:40:23.673Z,33.37
2019-05-23T04:42:51.000Z,28.93
2019-05-23T04:45:18.950Z,37.10
2019-05-23T04:47:46.174Z,30.60
2019-05-23T04:50:15.646Z,32.93
2019-05-23T04:52:43.046Z,34.17
2019-05-23T04:55:12.254Z,29.70
2019-05-23T04:57:40.087Z,28.63
2019-05-23T05:00:08.712Z,25.70
2019-05-23T05:02:36.026Z,26.13
2019-05-23T05:05:04.636Z,29.10
2019-05-23T05:07:31.827Z,31.80
2019-05-23T05:09:59.365Z,24.90
2019-05-23T05:12:26.833Z,28.23
2019-05-23T05:14:54.835Z,26.63
2019-05-23T05:17:22.653Z,27.63
2019-05-23T05:19:49.931Z,27.07
2019-05-23T05:22:17.804Z,25.43
2019-05-23T05:24:45.531Z,27.27
2019-05-23T05:27:14.405Z,22.90
2019-05-23T05:29:41.606Z,26.53
2019-05-23T05:32:09.276Z,25.40
2019-05-23T05:34:36.608Z,30.63
2019-05-23T05:37:03.899Z,24.27
2019-05-23T05:39:31.373Z,22.40
2019-05-23T05:41:59.220Z,26.03
2019-05-23T05:44:26.443Z,22.53
2019-05-23T05:46:53.883Z,24.27
2019-05-23T05:49:21.818Z,22.90
2019-05-23T05:51:49.477Z,22.93
2019-05-23T05:54:16.682Z,23.07
2019-05-23T05:56:44.052Z,19.87
2019-05-23T05:59:11.566Z,21.27
2019-05-23T06:01:39.632Z,26.33
2019-05-23T06:04:07.435Z,21.57
2019-05-23T06:06:42.713Z,17.83
2019-05-23T06:09:15.025Z,16.33
2019-05-23T06:11:42.414Z,15.33
2019-05-23T06:14:09.721Z,14.00
2019-05-23T06:16:37.420Z,14.73
2019-05-23T06:19:05.600Z,11.40
2019-05-23T06:21:34.054Z,12.23
2019-05-23T06:24:01.229Z,13.57
2019-05-23T06:26:28.592Z,11.90
2019-05-23T06:28:56.085Z,17.60
2019-05-23T06:31:24.085Z,15.87
2019-05-23T06:33:51.969Z,18.00
2019-05-23T06:36:19.180Z,14.87
2019-05-23T06:38:46.581Z,14.67
2019-05-23T06:41:14.177Z,15.10
2019-05-23T06:43:41.516Z,18.40
2019-05-23T06:46:08.708Z,16.33
2019-05-23T06:48:36.297Z,15.73
2019-05-23T06:51:03.785Z,12.47
2019-05-23T06:53:33.912Z,16.73
2019-05-23T06:56:01.110Z,16.03
2019-05-23T06:58:28.914Z,19.73
2019-05-23T07:00:56.336Z,20.50
2019-05-23T07:03:40.611Z,18.60
2019-05-23T07:05:54.106Z,13.50
2019-05-23T07:08:25.417Z,15.60
2019-05-23T07:10:52.700Z,15.87
2019-05-23T07:13:20.285Z,14.07
2019-05-23T07:15:47.684Z,12.73
2019-05-23T07:18:15.126Z,11.33
2019-05-23T07:20:42.326Z,16.87
2019-05-23T07:23:11.087Z,11.40
2019-05-23T07:25:38.310Z,11.50
2019-05-23T07:28:05.905Z,12.23
2019-05-23T07:30:33.584Z,11.60
2019-05-23T07:33:00.765Z,10.50
2019-05-23T07:35:27.984Z,11.80
2019-05-23T07:37:55.387Z,11.60
2019-05-23T07:40:25.337Z,12.20
2019-05-23T07:42:52.581Z,12.80
2019-05-23T07:45:24.608Z,11.20
2019-05-23T07:47:52.394Z,11.33
2019-05-23T07:50:20.681Z,10.50
2019-05-23T07:52:48.363Z,10.47
2019-05-23T07:55:23.360Z,9.63
2019-05-23T07:57:50.796Z,23.93
2019-05-23T08:00:23.204Z,12.30
2019-05-23T08:02:51.564Z,9.10
2019-05-23T08:05:19.840Z,11.97
2019-05-23T08:07:47.178Z,9.77
2019-05-23T08:10:30.888Z,14.90
2019-05-23T08:12:44.009Z,9.37
2019-05-23T08:15:11.812Z,18.93
2019-05-23T08:17:39.407Z,9.93
2019-05-23T08:20:08.116Z,10.63
2019-05-23T08:22:35.314Z,10.00
2019-05-23T08:25:03.281Z,8.53
2019-05-23T08:27:30.660Z,7.90
2019-05-23T08:29:57.840Z,11.40
2019-05-23T08:32:25.048Z,7.93
2019-05-23T08:34:52.619Z,9.10
2019-05-23T08:37:20.169Z,9.60
2019-05-23T08:39:48.065Z,9.00
2019-05-23T08:42:16.549Z,12.07
2019-05-23T08:44:44.570Z,14.50
2019-05-23T08:47:12.553Z,7.67
2019-05-23T08:49:39.781Z,13.83
2019-05-23T08:52:07.485Z,8.33
2019-05-23T08:54:35.019Z,9.23
2019-05-23T08:57:03.728Z,7.27
2019-05-23T08:59:31.238Z,7.70
2019-05-23T09:01:58.852Z,8.60
2019-05-23T09:04:26.399Z,9.10
2019-05-23T09:06:54.978Z,6.43
2019-05-23T09:09:29.569Z,9.10
2019-05-23T09:11:52.463Z,11.13
2019-05-23T09:14:19.965Z,6.97
2019-05-23T09:16:47.316Z,6.37
2019-05-23T09:19:14.762Z,9.13
2019-05-23T09:21:42.318Z,9.50
2019-05-23T09:24:10.843Z,8.60
2019-05-23T09:26:38.300Z,7.43
2019-05-23T09:29:06.985Z,7.30
2019-05-23T09:31:34.418Z,7.60
2019-05-23T09:34:01.593Z,11.57
2019-05-23T09:36:28.805Z,6.97
2019-05-23T09:38:56.025Z,8.77
2019-05-23T09:41:23.237Z,8.17
2019-05-23T09:43:50.433Z,8.90
2019-05-23T09:46:17.740Z,4.87
2019-05-23T09:48:45.404Z,8.00
2019-05-23T09:51:13.327Z,7.27
2019-05-23T09:53:46.346Z,5.90
2019-05-23T09:56:09.833Z,9.30
2019-05-23T09:58:37.144Z,6.77
2019-05-23T10:01:05.182Z,7.33
2019-05-23T10:03:32.393Z,8.83
2019-05-23T10:05:59.705Z,9.57
2019-05-23T10:08:26.929Z,10.20
2019-05-23T10:10:54.215Z,8.13
2019-05-23T10:13:37.850Z,7.87
2019-05-23T10:16:04.110Z,6.97
2019-05-23T10:18:31.508Z,7.03
2019-05-23T10:20:59.021Z,12.03
2019-05-23T10:23:26.336Z,8.37
2019-05-23T10:25:53.613Z,8.90
2019-05-23T10:28:20.912Z,13.30
2019-05-23T10:30:48.425Z,8.27
2019-05-23T10:33:15.958Z,9.60
2019-05-23T10:35:59.214Z,6.80
2019-05-23T10:38:12.652Z,8.33
2019-05-23T10:40:40.287Z,8.83
2019-05-23T10:43:08.920Z,8.97
2019-05-23T10:45:36.321Z,12.93
2019-05-23T10:48:04.921Z,9.20
2019-05-23T10:50:44.207Z,11.20
2019-05-23T10:53:02.239Z,10.33
2019-05-23T10:55:29.639Z,10.03
2019-05-23T10:57:56.831Z,10.83
2019-05-23T11:00:25.441Z,10.53
2019-05-23T11:02:53.512Z,11.07
2019-05-23T11:05:21.265Z,8.87
2019-05-23T11:07:49.200Z,8.27
2019-05-23T11:10:17.652Z,10.80
2019-05-23T11:12:45.389Z,11.50
2019-05-23T11:15:13.030Z,8.90
2019-05-23T11:17:40.462Z,8.37
2019-05-23T11:20:09.675Z,14.77
2019-05-23T11:22:36.957Z,12.57
2019-05-23T11:25:06.373Z,10.33
2019-05-23T11:27:33.780Z,10.70
2019-05-23T11:30:01.241Z,13.33
2019-05-23T11:32:29.061Z,11.37
2019-05-23T11:34:56.245Z,10.70
2019-05-23T11:37:23.610Z,8.40
2019-05-23T11:39:51.507Z,9.90
2019-05-23T11:42:19.268Z,6.90
2019-05-23T11:44:46.560Z,7.93
2019-05-23T11:47:15.070Z,10.33
2019-05-23T11:49:43.898Z,9.20
2019-05-23T11:52:11.984Z,9.80
2019-05-23T11:54:40.265Z,9.80
2019-05-23T11:57:08.466Z,12.73
2019-05-23T11:59:35.663Z,9.00
2019-05-23T12:02:18.963Z,14.77
2019-05-23T12:04:46.178Z,8.07
2019-05-23T12:07:17.704Z,10.10
2019-05-23T12:09:45.238Z,8.30
2019-05-23T12:12:12.493Z,6.87
2019-05-23T12:14:40.445Z,8.80
2019-05-23T12:17:07.861Z,7.67
2019-05-23T12:19:35.072Z,7.03
2019-05-23T12:22:02.526Z,8.67
2019-05-23T12:24:34.796Z,8.73
2019-05-23T12:26:59.270Z,9.60
2019-05-23T12:29:26.629Z,7.03
2019-05-23T12:31:54.040Z,10.13
2019-05-23T12:34:21.269Z,11.30
2019-05-23T12:36:48.492Z,10.53
2019-05-23T12:39:15.725Z,7.73
2019-05-23T12:41:42.959Z,9.50
2019-05-23T12:44:19.013Z,10.17
2019-05-23T12:46:47.224Z,10.67
2019-05-23T12:49:21.211Z,6.43
2019-05-23T12:51:49.024Z,8.57
2019-05-23T12:54:16.192Z,11.63
2019-05-23T12:56:48.618Z,8.13
2019-05-23T12:59:13.888Z,8.23
2019-05-23T13:01:43.415Z,8.03
2019-05-23T13:04:11.448Z,6.73
2019-05-23T13:06:39.168Z,10.07
2019-05-23T13:09:08.309Z,7.30
2019-05-23T13:11:35.603Z,7.27
2019-05-23T13:14:03.678Z,6.50
2019-05-23T13:16:31.106Z,10.97
2019-05-23T13:18:58.432Z,7.30
2019-05-23T13:21:25.737Z,6.70
2019-05-23T13:23:52.945Z,5.03
2019-05-23T13:26:20.566Z,9.50
2019-05-23T13:28:48.073Z,4.80
2019-05-23T13:31:15.272Z,4.37
2019-05-23T13:33:42.661Z,11.70
2019-05-23T13:36:10.049Z,4.10
2019-05-23T13:38:38.068Z,6.60
2019-05-23T13:41:05.380Z,5.00
2019-05-23T13:43:33.108Z,3.00
2019-05-23T13:46:00.322Z,5.80
2019-05-23T13:48:28.476Z,4.63
2019-05-23T13:50:56.144Z,7.10
2019-05-23T13:53:23.553Z,3.80
2019-05-23T13:55:52.090Z,4.93
2019-05-23T13:58:19.689Z,5.87
2019-05-23T14:00:48.137Z,3.87
2019-05-23T14:03:15.529Z,7.63
2019-05-23T14:05:42.737Z,3.00
2019-05-23T14:08:12.762Z,2.40
2019-05-23T14:10:39.580Z,2.87
2019-05-23T14:13:06.781Z,3.67
2019-05-23T14:15:39.036Z,4.27
2019-05-23T14:18:06.353Z,4.27
2019-05-23T14:20:33.972Z,4.43
2019-05-23T14:23:07.082Z,8.27
2019-05-23T14:25:35.101Z,5.07
2019-05-23T14:28:22.162Z,3.80
2019-05-23T14:31:00.680Z,3.20
2019-05-23T14:33:46.122Z,6.93
2019-05-23T14:36:19.177Z,2.17
2019-05-23T14:38:47.083Z,2.50
2019-05-23T14:41:14.369Z,4.10
2019-05-23T14:43:42.253Z,3.00
2019-05-23T14:46:14.069Z,10.50
2019-05-23T14:49:01.223Z,6.03
2019-05-23T14:51:47.017Z,3.73
2019-05-23T14:54:18.390Z,6.20
2019-05-23T14:56:47.057Z,4.97
2019-05-23T14:59:14.549Z,2.70
2019-05-23T15:01:42.754Z,10.07
2019-05-23T15:04:10.144Z,5.00
2019-05-23T15:06:37.630Z,3.70
2019-05-23T15:09:06.616Z,5.90
2019-05-23T15:11:34.217Z,4.07
2019-05-23T15:14:01.416Z,3.20
2019-05-23T15:16:28.709Z,3.80
2019-05-23T15:18:55.985Z,3.30
2019-05-23T15:21:23.828Z,4.23
2019-05-23T15:23:51.011Z,2.93
2019-05-23T15:26:22.929Z,6.60
2019-05-23T15:28:47.287Z,7.50
2019-05-23T15:31:14.569Z,7.17
2019-05-23T15:33:41.876Z,4.63
2019-05-23T15:36:09.169Z,5.77
2019-05-23T15:38:36.334Z,4.33
2019-05-23T15:41:03.925Z,6.50
2019-05-23T15:43:31.118Z,4.90
2019-05-23T15:45:58.437Z,5.20
2019-05-23T15:48:25.635Z,9.53
2019-05-23T15:50:52.901Z,5.83
2019-05-23T15:53:46.400Z,9.40
2019-05-23T15:56:31.740Z,6.93
2019-05-23T15:59:19.419Z,10.33
2019-05-23T16:02:12.154Z,6.70
2019-05-23T16:04:40.868Z,6.13
2019-05-23T16:07:09.372Z,7.57
2019-05-23T16:09:36.723Z,7.23
2019-05-23T16:12:04.031Z,10.73
2019-05-23T16:14:31.613Z,6.33
2019-05-23T16:16:58.915Z,6.60
2019-05-23T16:19:26.296Z,9.50
2019-05-23T16:21:53.537Z,9.40
2019-05-23T16:24:21.141Z,10.67
2019-05-23T16:26:48.726Z,6.00
2019-05-23T16:29:16.495Z,6.10
2019-05-23T16:31:44.324Z,9.13
2019-05-23T16:34:11.509Z,11.37
2019-05-23T16:36:38.888Z,10.63
2019-05-23T16:39:06.800Z,5.50
2019-05-23T16:41:33.984Z,10.03
2019-05-23T16:44:01.184Z,11.53
2019-05-23T16:46:28.503Z,7.17
2019-05-23T16:48:55.853Z,11.27
2019-05-23T16:51:23.153Z,8.13
2019-05-23T16:53:50.932Z,9.63
2019-05-23T16:56:49.458Z,5.80
2019-05-23T16:59:40.982Z,6.40
2019-05-23T17:02:39.677Z,7.00
2019-05-23T17:05:31.188Z,7.23
2019-05-23T17:08:33.107Z,7.40
2019-05-23T17:11:12.020Z,8.23
2019-05-23T17:13:46.357Z,8.60
2019-05-23T17:16:32.098Z,6.90
2019-05-23T17:19:10.125Z,8.70
2019-05-23T17:21:57.166Z,8.40
2019-05-23T17:24:47.351Z,11.17
2019-05-23T17:27:43.165Z,7.20
2019-05-23T17:30:28.908Z,11.67
2019-05-23T17:32:57.406Z,7.83
2019-05-23T17:35:24.824Z,5.00
2019-05-23T17:37:52.162Z,6.53
2019-05-23T17:40:24.927Z,9.23
2019-05-23T17:42:48.740Z,10.70
2019-05-23T17:45:16.477Z,11.53
2019-05-23T17:47:45.203Z,9.83
2019-05-23T17:50:12.392Z,7.03
2019-05-23T17:52:39.572Z,11.53
2019-05-23T17:55:07.089Z,12.20
2019-05-23T17:57:34.369Z,9.20
2019-05-23T18:00:03.217Z,7.13
2019-05-23T18:02:31.302Z,7.27
2019-05-23T18:04:58.472Z,10.10
2019-05-23T18:07:25.857Z,11.70
2019-05-23T18:09:53.276Z,11.77
2019-05-23T18:12:20.880Z,9.03
2019-05-23T18:14:48.084Z,10.00
2019-05-23T18:17:15.380Z,13.10
2019-05-23T18:19:42.566Z,18.97
2019-05-23T18:22:12.160Z,14.90
2019-05-23T18:24:39.456Z,10.77
2019-05-23T18:27:08.396Z,10.00
2019-05-23T18:29:35.668Z,83.90
2019-05-23T18:32:05.994Z,112.60
2019-05-23T18:34:33.489Z,172.93
2019-05-23T18:37:01.113Z,19.97
2019-05-23T18:39:29.002Z,33.27
2019-05-23T18:41:56.299Z,23.27
2019-05-23T18:44:23.504Z,9.37
2019-05-23T18:46:53.401Z,10.20
2019-05-23T18:49:20.987Z,10.97
2019-05-23T18:51:48.680Z,8.90
2019-05-23T18:54:15.982Z,8.50
2019-05-23T18:56:43.479Z,8.23
2019-05-23T18:59:10.857Z,7.07
2019-05-23T19:01:38.068Z,7.07
2019-05-23T19:04:05.439Z,7.67
2019-05-23T19:06:33.266Z,6.20
2019-05-23T19:09:00.556Z,8.70
2019-05-23T19:11:27.889Z,9.17
2019-05-23T19:13:55.184Z,11.37
2019-05-23T19:16:22.667Z,9.63
2019-05-23T19:18:50.149Z,7.80
2019-05-23T19:21:18.870Z,7.17
2019-05-23T19:23:46.405Z,8.80
2019-05-23T19:26:14.312Z,7.17
2019-05-23T19:28:42.522Z,8.43
2019-05-23T19:31:10.520Z,9.50
2019-05-23T19:33:38.952Z,12.40
2019-05-23T19:36:06.787Z,28.63
2019-05-23T19:38:34.320Z,26.13
2019-05-23T19:41:01.970Z,16.57
2019-05-23T19:43:29.678Z,13.53
2019-05-23T19:45:56.957Z,14.47
2019-05-23T19:48:24.946Z,11.90
2019-05-23T19:50:53.412Z,8.43
2019-05-23T19:53:20.920Z,14.97
2019-05-23T19:55:48.279Z,9.33
2019-05-23T19:58:16.259Z,9.20
2019-05-23T20:00:44.833Z,9.43
2019-05-23T20:03:12.681Z,11.63
2019-05-23T20:05:40.991Z,9.33
2019-05-23T20:08:08.604Z,9.07
2019-05-23T20:10:36.938Z,7.20
2019-05-23T20:13:04.908Z,11.47
2019-05-23T20:15:32.470Z,14.53
2019-05-23T20:17:59.996Z,9.20
2019-05-23T20:20:28.536Z,7.40
2019-05-23T20:22:55.995Z,10.17
2019-05-23T20:25:24.177Z,10.47
2019-05-23T20:27:51.554Z,13.83
2019-05-23T20:30:59.827Z,11.90
2019-05-23T20:33:28.018Z,10.67
2019-05-23T20:35:55.409Z,9.77
2019-05-23T20:38:24.056Z,10.10
2019-05-23T20:40:51.395Z,11.10
2019-05-23T20:43:18.751Z,10.80
2019-05-23T20:45:46.083Z,10.37
2019-05-23T20:48:13.397Z,13.03
2019-05-23T20:50:40.707Z,10.53
2019-05-23T20:53:07.979Z,17.73
2019-05-23T20:55:35.348Z,8.50
2019-05-23T20:58:02.865Z,17.03
2019-05-23T21:00:50.433Z,16.63
2019-05-23T21:03:20.007Z,14.37
2019-05-23T21:05:48.419Z,10.53
2019-05-23T21:08:15.719Z,13.10
2019-05-23T21:10:46.168Z,21.90
2019-05-23T21:13:13.432Z,53.37
2019-05-23T21:15:41.105Z,17.33
2019-05-23T21:18:08.907Z,12.43
2019-05-23T21:20:36.251Z,11.53
2019-05-23T21:23:03.542Z,14.23
2019-05-23T21:25:31.815Z,8.73
2019-05-23T21:27:59.215Z,8.57
2019-05-23T21:30:27.164Z,7.17
2019-05-23T21:32:54.555Z,8.70
2019-05-23T21:35:21.887Z,8.70
2019-05-23T21:37:49.157Z,9.60
2019-05-23T21:40:30.890Z,8.10
2019-05-23T21:42:58.359Z,9.07
2019-05-23T21:45:25.817Z,11.17
2019-05-23T21:47:53.073Z,10.00
2019-05-23T21:50:20.667Z,10.33
2019-05-23T21:52:47.965Z,9.43
2019-05-23T21:55:19.279Z,7.40
2019-05-23T21:57:46.485Z,10.00
2019-05-23T22:00:19.733Z,12.77
2019-05-23T22:02:47.010Z,19.33
2019-05-23T22:05:16.286Z,18.20
2019-05-23T22:07:43.693Z,17.57
2019-05-23T22:10:11.222Z,24.30
2019-05-23T22:12:39.321Z,23.10
2019-05-23T22:15:06.612Z,25.07
2019-05-23T22:17:33.924Z,14.60
2019-05-23T22:20:01.180Z,10.00
2019-05-23T22:22:28.376Z,7.83
2019-05-23T22:24:55.571Z,8.30
2019-05-23T22:27:22.982Z,7.80
2019-05-23T22:29:50.275Z,9.60
2019-05-23T22:32:19.569Z,8.83
2019-05-23T22:34:52.056Z,9.03
2019-05-23T22:37:26.693Z,8.10
2019-05-23T22:39:53.885Z,11.87
2019-05-23T22:42:21.835Z,9.77
2019-05-23T22:44:49.385Z,12.03
2019-05-23T22:47:16.769Z,8.60
2019-05-23T22:49:44.049Z,9.13
2019-05-23T22:52:11.233Z,6.57
2019-05-23T22:54:38.442Z,9.57
2019-05-23T22:57:05.617Z,16.43
2019-05-23T22:59:33.476Z,10.03
2019-05-23T23:02:00.764Z,9.63
2019-05-23T23:04:27.956Z,7.10
2019-05-23T23:06:56.055Z,9.57
2019-05-23T23:09:23.300Z,7.93
2019-05-23T23:11:50.554Z,11.60
2019-05-23T23:14:17.837Z,8.53
2019-05-23T23:16:45.520Z,14.23
2019-05-23T23:19:12.759Z,15.90
2019-05-23T23:21:40.409Z,11.03
2019-05-23T23:24:07.612Z,43.37
2019-05-23T23:26:34.797Z,35.03
2019-05-23T23:29:02.178Z,16.77
2019-05-23T23:31:29.475Z,18.50
2019-05-23T23:33:56.753Z,7.57
2019-05-23T23:36:23.925Z,11.50
2019-05-23T23:38:51.183Z,10.50
2019-05-23T23:41:18.431Z,18.60
2019-05-23T23:43:58.733Z,10.13
2019-05-23T23:46:32.725Z,8.77
2019-05-23T23:49:17.821Z,10.23
2019-05-23T23:52:03.252Z,7.80
2019-05-23T23:54:48.281Z,11.60
2019-05-23T23:57:34.077Z,10.70
